sensor_id;sensor_type;location;lat;lon;timestamp;P1;durP1;ratioP1;P2;durP2;ratioP2
44358;SDS011;30077;52.474;13.326;2023-12-14T00:07:13;33.30;;;15.17;;
44358;SDS011;30077;52.474;13.326;2023-12-14T00:17:15;36.13;;;16.55;;
44358;SDS011;30077;52.474;13.326;2023-12-14T00:27:16;41.53;;;16.67;;
44358;SDS011;30077;52.474;13.326;2023-12-14T00:37:16;36.83;;;17.42;;
44358;SDS011;30077;52.474;13.326;2023-12-14T00:47:17;37.33;;;16.60;;
44358;SDS011;30077;52.474;13.326;2023-12-14T00:57:17;38.93;;;17.53;;
44358;SDS011;30077;52.474;13.326;2023-12-14T01:07:18;42.57;;;18.37;;
44358;SDS011;30077;52.474;13.326;2023-12-14T01:17:19;43.03;;;17.73;;
44358;SDS011;30077;52.474;13.326;2023-12-14T01:27:19;32.47;;;15.88;;
44358;SDS011;30077;52.474;13.326;2023-12-14T01:37:20;35.70;;;15.83;;
44358;SDS011;30077;52.474;13.326;2023-12-14T01:47:21;26.57;;;13.60;;
44358;SDS011;30077;52.474;13.326;2023-12-14T01:57:21;28.63;;;13.45;;
44358;SDS011;30077;52.474;13.326;2023-12-14T02:07:22;28.13;;;13.57;;
44358;SDS011;30077;52.474;13.326;2023-12-14T02:17:23;21.50;;;11.50;;
44358;SDS011;30077;52.474;13.326;2023-12-14T02:27:23;18.80;;;9.80;;
44358;SDS011;30077;52.474;13.326;2023-12-14T02:37:24;27.73;;;11.70;;
44358;SDS011;30077;52.474;13.326;2023-12-14T02:47:24;28.43;;;12.43;;
44358;SDS011;30077;52.474;13.326;2023-12-14T02:57:25;30.93;;;14.17;;
44358;SDS011;30077;52.474;13.326;2023-12-14T03:07:26;31.17;;;13.90;;
44358;SDS011;30077;52.474;13.326;2023-12-14T03:17:27;36.55;;;15.95;;
44358;SDS011;30077;52.474;13.326;2023-12-14T03:27:27;37.47;;;14.88;;
44358;SDS011;30077;52.474;13.326;2023-12-14T03:37:28;33.57;;;14.87;;
44358;SDS011;30077;52.474;13.326;2023-12-14T03:47:29;31.65;;;13.85;;
44358;SDS011;30077;52.474;13.326;2023-12-14T03:57:29;29.57;;;13.53;;
44358;SDS011;30077;52.474;13.326;2023-12-14T04:07:30;32.10;;;13.48;;
44358;SDS011;30077;52.474;13.326;2023-12-14T04:17:31;33.70;;;15.10;;
44358;SDS011;30077;52.474;13.326;2023-12-14T04:27:32;22.85;;;12.00;;
44358;SDS011;30077;52.474;13.326;2023-12-14T04:37:33;21.70;;;11.57;;
44358;SDS011;30077;52.474;13.326;2023-12-14T04:47:34;25.30;;;12.05;;
44358;SDS011;30077;52.474;13.326;2023-12-14T04:57:35;24.83;;;11.27;;
44358;SDS011;30077;52.474;13.326;2023-12-14T05:07:36;28.37;;;12.90;;
44358;SDS011;30077;52.474;13.326;2023-12-14T05:17:38;22.63;;;11.47;;
44358;SDS011;30077;52.474;13.326;2023-12-14T05:27:38;30.83;;;13.20;;
44358;SDS011;30077;52.474;13.326;2023-12-14T05:37:39;26.42;;;11.73;;
44358;SDS011;30077;52.474;13.326;2023-12-14T05:47:41;31.25;;;13.18;;
44358;SDS011;30077;52.474;13.326;2023-12-14T05:57:42;28.83;;;12.55;;
44358;SDS011;30077;52.474;13.326;2023-12-14T06:07:44;25.07;;;12.57;;
44358;SDS011;30077;52.474;13.326;2023-12-14T06:17:44;23.60;;;11.52;;
44358;SDS011;30077;52.474;13.326;2023-12-14T06:27:45;24.60;;;13.00;;
44358;SDS011;30077;52.474;13.326;2023-12-14T06:37:46;19.70;;;10.67;;
44358;SDS011;30077;52.474;13.326;2023-12-14T06:47:46;20.30;;;11.20;;
44358;SDS011;30077;52.474;13.326;2023-12-14T06:57:47;20.90;;;10.40;;
44358;SDS011;30077;52.474;13.326;2023-12-14T07:07:48;20.20;;;10.38;;
44358;SDS011;30077;52.474;13.326;2023-12-14T07:17:49;17.30;;;10.33;;
44358;SDS011;30077;52.474;13.326;2023-12-14T07:27:49;20.40;;;10.77;;
44358;SDS011;30077;52.474;13.326;2023-12-14T07:37:50;20.13;;;10.52;;
44358;SDS011;30077;52.474;13.326;2023-12-14T07:47:51;21.30;;;11.02;;
44358;SDS011;30077;52.474;13.326;2023-12-14T07:57:52;21.13;;;12.37;;
44358;SDS011;30077;52.474;13.326;2023-12-14T08:07:52;23.60;;;12.57;;
44358;SDS011;30077;52.474;13.326;2023-12-14T08:17:53;28.23;;;13.95;;
44358;SDS011;30077;52.474;13.326;2023-12-14T08:27:54;31.40;;;14.85;;
44358;SDS011;30077;52.474;13.326;2023-12-14T08:37:55;35.80;;;15.70;;
44358;SDS011;30077;52.474;13.326;2023-12-14T08:47:56;27.92;;;15.77;;
44358;SDS011;30077;52.474;13.326;2023-12-14T08:57:56;25.80;;;15.18;;
44358;SDS011;30077;52.474;13.326;2023-12-14T09:07:57;26.88;;;14.75;;
44358;SDS011;30077;52.474;13.326;2023-12-14T09:17:59;27.60;;;14.73;;
44358;SDS011;30077;52.474;13.326;2023-12-14T09:28:00;30.40;;;15.77;;
44358;SDS011;30077;52.474;13.326;2023-12-14T09:38:00;28.90;;;16.10;;
44358;SDS011;30077;52.474;13.326;2023-12-14T09:48:01;30.25;;;16.05;;
44358;SDS011;30077;52.474;13.326;2023-12-14T09:58:03;32.30;;;15.65;;
44358;SDS011;30077;52.474;13.326;2023-12-14T10:08:03;30.30;;;15.33;;
44358;SDS011;30077;52.474;13.326;2023-12-14T10:18:06;25.50;;;13.25;;
44358;SDS011;30077;52.474;13.326;2023-12-14T10:28:07;23.77;;;13.50;;
44358;SDS011;30077;52.474;13.326;2023-12-14T10:38:07;25.08;;;15.00;;
44358;SDS011;30077;52.474;13.326;2023-12-14T10:48:11;23.90;;;13.07;;
44358;SDS011;30077;52.474;13.326;2023-12-14T10:58:13;28.50;;;14.25;;
44358;SDS011;30077;52.474;13.326;2023-12-14T11:08:14;26.60;;;13.82;;
44358;SDS011;30077;52.474;13.326;2023-12-14T11:28:15;26.95;;;15.00;;
44358;SDS011;30077;52.474;13.326;2023-12-14T11:38:15;29.70;;;14.67;;
44358;SDS011;30077;52.474;13.326;2023-12-14T11:48:17;32.35;;;16.73;;
44358;SDS011;30077;52.474;13.326;2023-12-14T11:58:20;27.42;;;15.10;;
44358;SDS011;30077;52.474;13.326;2023-12-14T12:08:21;29.70;;;15.48;;
44358;SDS011;30077;52.474;13.326;2023-12-14T12:18:22;28.33;;;14.90;;
44358;SDS011;30077;52.474;13.326;2023-12-14T12:28:22;28.88;;;15.50;;
44358;SDS011;30077;52.474;13.326;2023-12-14T12:38:23;26.60;;;16.33;;
44358;SDS011;30077;52.474;13.326;2023-12-14T12:48:24;29.23;;;14.63;;
44358;SDS011;30077;52.474;13.326;2023-12-14T12:58:24;28.50;;;14.53;;
44358;SDS011;30077;52.474;13.326;2023-12-14T13:08:25;29.23;;;13.50;;
44358;SDS011;30077;52.474;13.326;2023-12-14T13:18:26;21.48;;;13.10;;
44358;SDS011;30077;52.474;13.326;2023-12-14T13:28:26;34.23;;;16.13;;
44358;SDS011;30077;52.474;13.326;2023-12-14T13:38:29;27.45;;;15.45;;
44358;SDS011;30077;52.474;13.326;2023-12-14T13:48:32;32.90;;;18.33;;
44358;SDS011;30077;52.474;13.326;2023-12-14T13:58:33;29.67;;;17.25;;
44358;SDS011;30077;52.474;13.326;2023-12-14T14:08:37;32.58;;;17.45;;
44358;SDS011;30077;52.474;13.326;2023-12-14T14:18:37;32.67;;;17.95;;
44358;SDS011;30077;52.474;13.326;2023-12-14T14:28:38;30.23;;;16.88;;
44358;SDS011;30077;52.474;13.326;2023-12-14T14:38:39;33.08;;;16.67;;
44358;SDS011;30077;52.474;13.326;2023-12-14T14:48:39;29.30;;;15.73;;
44358;SDS011;30077;52.474;13.326;2023-12-14T14:58:40;28.57;;;14.93;;
44358;SDS011;30077;52.474;13.326;2023-12-14T15:08:41;31.13;;;15.05;;
44358;SDS011;30077;52.474;13.326;2023-12-14T15:18:41;27.80;;;15.82;;
44358;SDS011;30077;52.474;13.326;2023-12-14T15:28:42;31.23;;;15.95;;
44358;SDS011;30077;52.474;13.326;2023-12-14T15:38:43;28.55;;;15.55;;
44358;SDS011;30077;52.474;13.326;2023-12-14T15:48:46;26.50;;;13.98;;
44358;SDS011;30077;52.474;13.326;2023-12-14T15:58:46;25.98;;;15.43;;
44358;SDS011;30077;52.474;13.326;2023-12-14T16:08:47;26.67;;;15.13;;
44358;SDS011;30077;52.474;13.326;2023-12-14T16:18:48;25.83;;;13.73;;
44358;SDS011;30077;52.474;13.326;2023-12-14T16:28:49;29.95;;;14.68;;
44358;SDS011;30077;52.474;13.326;2023-12-14T16:38:49;31.80;;;15.43;;
44358;SDS011;30077;52.474;13.326;2023-12-14T16:48:50;30.25;;;13.48;;
44358;SDS011;30077;52.474;13.326;2023-12-14T16:58:51;38.20;;;21.37;;
44358;SDS011;30077;52.474;13.326;2023-12-14T17:08:51;27.08;;;14.70;;
44358;SDS011;30077;52.474;13.326;2023-12-14T17:18:53;28.13;;;14.13;;
44358;SDS011;30077;52.474;13.326;2023-12-14T17:28:55;27.75;;;13.48;;
44358;SDS011;30077;52.474;13.326;2023-12-14T17:38:57;30.38;;;13.68;;
44358;SDS011;30077;52.474;13.326;2023-12-14T17:48:57;24.60;;;12.55;;
44358;SDS011;30077;52.474;13.326;2023-12-14T17:58:58;28.05;;;12.43;;
44358;SDS011;30077;52.474;13.326;2023-12-14T18:08:59;24.55;;;12.98;;
44358;SDS011;30077;52.474;13.326;2023-12-14T18:19:00;24.35;;;11.90;;
44358;SDS011;30077;52.474;13.326;2023-12-14T18:29:00;25.00;;;12.73;;
44358;SDS011;30077;52.474;13.326;2023-12-14T18:39:01;26.25;;;14.38;;
44358;SDS011;30077;52.474;13.326;2023-12-14T18:49:02;25.60;;;12.68;;
44358;SDS011;30077;52.474;13.326;2023-12-14T18:59:03;26.37;;;14.00;;
44358;SDS011;30077;52.474;13.326;2023-12-14T19:09:03;28.43;;;13.57;;
44358;SDS011;30077;52.474;13.326;2023-12-14T19:19:04;27.70;;;14.17;;
44358;SDS011;30077;52.474;13.326;2023-12-14T19:29:05;25.70;;;13.13;;
44358;SDS011;30077;52.474;13.326;2023-12-14T19:39:06;26.02;;;13.07;;
44358;SDS011;30077;52.474;13.326;2023-12-14T19:49:06;28.38;;;13.88;;
44358;SDS011;30077;52.474;13.326;2023-12-14T19:59:08;30.95;;;13.02;;
44358;SDS011;30077;52.474;13.326;2023-12-14T20:09:08;25.60;;;13.43;;
44358;SDS011;30077;52.474;13.326;2023-12-14T20:19:09;28.67;;;12.82;;
44358;SDS011;30077;52.474;13.326;2023-12-14T20:29:12;22.40;;;12.15;;
44358;SDS011;30077;52.474;13.326;2023-12-14T20:39:12;24.80;;;13.47;;
44358;SDS011;30077;52.474;13.326;2023-12-14T20:49:13;24.48;;;13.32;;
44358;SDS011;30077;52.474;13.326;2023-12-14T20:59:14;21.25;;;11.50;;
44358;SDS011;30077;52.474;13.326;2023-12-14T21:09:14;21.90;;;11.37;;
44358;SDS011;30077;52.474;13.326;2023-12-14T21:19:18;23.15;;;11.82;;
44358;SDS011;30077;52.474;13.326;2023-12-14T21:29:20;26.00;;;13.32;;
44358;SDS011;30077;52.474;13.326;2023-12-14T21:39:20;27.20;;;13.53;;
44358;SDS011;30077;52.474;13.326;2023-12-14T21:49:21;28.20;;;13.67;;
44358;SDS011;30077;52.474;13.326;2023-12-14T21:59:22;29.48;;;14.57;;
44358;SDS011;30077;52.474;13.326;2023-12-14T22:09:22;23.48;;;12.75;;
44358;SDS011;30077;52.474;13.326;2023-12-14T22:19:23;24.63;;;13.15;;
44358;SDS011;30077;52.474;13.326;2023-12-14T22:29:25;27.05;;;13.90;;
44358;SDS011;30077;52.474;13.326;2023-12-14T22:39:26;25.23;;;12.85;;
44358;SDS011;30077;52.474;13.326;2023-12-14T22:49:27;23.40;;;12.57;;
44358;SDS011;30077;52.474;13.326;2023-12-14T22:59:27;27.53;;;13.60;;
44358;SDS011;30077;52.474;13.326;2023-12-14T23:09:28;24.10;;;13.88;;
44358;SDS011;30077;52.474;13.326;2023-12-14T23:19:29;23.75;;;12.18;;
44358;SDS011;30077;52.474;13.326;2023-12-14T23:29:29;26.77;;;13.20;;
44358;SDS011;30077;52.474;13.326;2023-12-14T23:39:30;22.17;;;12.40;;
44358;SDS011;30077;52.474;13.326;2023-12-14T23:49:31;25.00;;;13.75;;
44358;SDS011;30077;52.474;13.326;2023-12-14T23:59:31;27.27;;;14.83;;
